createdAt,value
2022-09-10T00:01:27.598Z,91.42
2022-09-10T00:03:56.484Z,91.16
2022-09-10T00:06:26.093Z,91.71
2022-09-10T00:08:54.083Z,91.74
2022-09-10T00:11:20.861Z,91.43
2022-09-10T00:13:49.172Z,91.53
2022-09-10T00:16:19.114Z,91.33
2022-09-10T00:18:47.564Z,91.42
2022-09-10T00:21:18.356Z,91.62
2022-09-10T00:23:45.697Z,91.55
2022-09-10T00:26:34.613Z,91.56
2022-09-10T00:29:02.121Z,91.54
2022-09-10T00:31:30.844Z,91.63
2022-09-10T00:33:59.373Z,91.93
2022-09-10T00:36:36.111Z,91.85
2022-09-10T00:39:06.913Z,91.65
2022-09-10T00:41:36.673Z,91.24
2022-09-10T00:44:26.629Z,91.20
2022-09-10T00:46:54.626Z,91.50
2022-09-10T00:49:44.771Z,91.27
2022-09-10T00:52:12.454Z,91.41
2022-09-10T00:54:42.271Z,91.60
2022-09-10T00:57:13.577Z,91.76
2022-09-10T00:59:43.774Z,91.73
2022-09-10T01:02:12.119Z,91.79
2022-09-10T01:04:39.456Z,92.31
2022-09-10T01:07:09.802Z,92.34
2022-09-10T01:09:38.025Z,92.28
2022-09-10T01:12:19.911Z,92.25
2022-09-10T01:15:15.719Z,92.18
2022-09-10T01:18:11.815Z,92.25
2022-09-10T01:21:00.033Z,91.95
2022-09-10T01:23:39.620Z,91.76
2022-09-10T01:26:12.154Z,91.95
2022-09-10T01:28:59.988Z,92.27
2022-09-10T01:32:03.037Z,92.32
2022-09-10T01:34:35.727Z,92.22
2022-09-10T01:37:11.208Z,92.28
2022-09-10T01:39:39.380Z,92.25
2022-09-10T01:42:06.913Z,92.79
2022-09-10T01:44:42.998Z,93.24
2022-09-10T01:47:52.466Z,93.52
2022-09-10T01:50:39.343Z,93.89
2022-09-10T01:53:30.996Z,93.38
2022-09-10T01:56:19.609Z,93.42
2022-09-10T01:58:46.510Z,93.21
2022-09-10T02:01:35.114Z,93.29
2022-09-10T02:04:06.623Z,93.25
2022-09-10T02:06:36.450Z,92.85
2022-09-10T02:09:04.238Z,92.87
2022-09-10T02:11:32.304Z,93.11
2022-09-10T02:13:59.054Z,93.12
2022-09-10T02:16:33.476Z,92.89
2022-09-10T02:19:02.034Z,92.62
2022-09-10T02:21:28.822Z,92.22
2022-09-10T02:23:59.237Z,92.25
2022-09-10T02:26:25.946Z,92.38
2022-09-10T02:28:52.581Z,92.46
2022-09-10T02:31:19.328Z,92.42
2022-09-10T02:33:46.159Z,92.72
2022-09-10T02:36:13.057Z,93.15
2022-09-10T02:38:40.420Z,92.84
2022-09-10T02:41:09.572Z,92.56
2022-09-10T02:43:38.184Z,92.76
2022-09-10T02:46:08.922Z,92.79
2022-09-10T02:48:35.549Z,92.88
2022-09-10T02:51:02.853Z,92.82
2022-09-10T02:53:31.599Z,92.93
2022-09-10T02:55:58.408Z,93.14
2022-09-10T02:58:25.096Z,93.17
2022-09-10T03:00:51.871Z,93.13
2022-09-10T03:03:18.551Z,92.88
2022-09-10T03:05:45.367Z,92.69
2022-09-10T03:08:12.026Z,92.79
2022-09-10T03:10:39.293Z,92.99
2022-09-10T03:13:06.800Z,93.17
2022-09-10T03:15:33.529Z,93.04
2022-09-10T03:18:00.215Z,92.85
2022-09-10T03:20:27.523Z,92.57
2022-09-10T03:22:54.167Z,92.39
2022-09-10T03:25:22.633Z,93.17
2022-09-10T03:27:49.387Z,94.04
2022-09-10T03:30:16.315Z,94.69
2022-09-10T03:32:43.232Z,95.18
2022-09-10T03:35:10.174Z,95.64
2022-09-10T03:37:36.839Z,95.57
2022-09-10T03:40:04.487Z,95.56
2022-09-10T03:42:31.413Z,95.46
2022-09-10T03:44:58.144Z,95.38
2022-09-10T03:47:24.978Z,95.41
2022-09-10T03:49:51.628Z,95.36
2022-09-10T03:52:18.557Z,95.25
2022-09-10T03:54:45.605Z,95.07
2022-09-10T03:57:13.121Z,94.94
2022-09-10T03:59:41.185Z,94.97
2022-09-10T04:02:11.853Z,94.98
2022-09-10T04:04:38.617Z,94.72
2022-09-10T04:07:05.354Z,94.87
2022-09-10T04:09:32.599Z,94.99
2022-09-10T04:12:00.106Z,94.78
2022-09-10T04:14:27.081Z,94.72
2022-09-10T04:16:53.856Z,94.65
2022-09-10T04:19:20.851Z,94.66
2022-09-10T04:21:48.396Z,94.78
2022-09-10T04:24:15.058Z,94.85
2022-09-10T04:26:41.733Z,94.88
2022-09-10T04:29:08.463Z,94.75
2022-09-10T04:31:35.202Z,94.48
2022-09-10T04:34:01.923Z,94.49
2022-09-10T04:36:29.336Z,94.72
2022-09-10T04:38:56.059Z,94.50
2022-09-10T04:41:23.553Z,94.17
2022-09-10T04:43:50.170Z,93.98
2022-09-10T04:46:17.647Z,94.19
2022-09-10T04:48:44.416Z,94.27
2022-09-10T04:51:17.797Z,94.14
2022-09-10T04:53:46.010Z,93.99
2022-09-10T04:56:13.218Z,94.67
2022-09-10T04:58:41.083Z,93.88
2022-09-10T05:01:08.359Z,93.64
2022-09-10T05:03:35.282Z,93.90
2022-09-10T05:06:02.244Z,93.68
2022-09-10T05:08:29.569Z,93.75
2022-09-10T05:10:56.433Z,93.89
2022-09-10T05:13:24.221Z,93.73
2022-09-10T05:15:50.967Z,93.51
2022-09-10T05:18:17.768Z,93.29
2022-09-10T05:20:47.138Z,93.26
2022-09-10T05:23:13.788Z,92.97
2022-09-10T05:25:42.966Z,93.01
2022-09-10T05:28:09.752Z,93.16
2022-09-10T05:30:36.936Z,93.09
2022-09-10T05:33:04.119Z,93.24
2022-09-10T05:35:31.006Z,92.79
2022-09-10T05:37:57.775Z,92.97
2022-09-10T05:40:25.399Z,92.86
2022-09-10T05:42:54.191Z,92.57
2022-09-10T05:45:24.832Z,93.10
2022-09-10T05:47:52.947Z,92.92
2022-09-10T05:50:20.073Z,93.12
2022-09-10T05:52:47.032Z,93.69
2022-09-10T05:55:14.306Z,92.94
2022-09-10T05:57:41.494Z,92.21
2022-09-10T06:00:09.862Z,92.38
2022-09-10T06:02:36.963Z,92.50
2022-09-10T06:05:04.287Z,91.97
2022-09-10T06:07:31.251Z,92.46
2022-09-10T06:09:57.930Z,91.98
2022-09-10T06:12:24.731Z,91.85
2022-09-10T06:14:51.363Z,91.33
2022-09-10T06:17:18.453Z,91.37
2022-09-10T06:19:46.264Z,91.24
2022-09-10T06:22:13.599Z,90.98
2022-09-10T06:24:40.543Z,90.92
2022-09-10T06:27:07.282Z,90.71
2022-09-10T06:29:36.127Z,90.48
2022-09-10T06:32:03.603Z,90.13
2022-09-10T06:34:30.322Z,89.68
2022-09-10T06:36:58.275Z,90.25
2022-09-10T06:39:25.091Z,89.95
2022-09-10T06:41:53.177Z,90.13
2022-09-10T06:44:22.156Z,89.64
2022-09-10T06:47:42.746Z,89.82
2022-09-10T06:49:36.486Z,89.88
2022-09-10T06:52:03.608Z,89.69
2022-09-10T06:54:30.315Z,89.38
2022-09-10T06:56:57.868Z,88.94
2022-09-10T06:59:24.688Z,89.18
2022-09-10T07:01:51.718Z,88.92
2022-09-10T07:04:18.596Z,89.50
2022-09-10T07:06:47.622Z,89.20
2022-09-10T07:09:14.902Z,89.12
2022-09-10T07:11:42.000Z,89.41
2022-09-10T07:14:12.871Z,88.67
2022-09-10T07:16:44.647Z,88.23
2022-09-10T07:19:15.158Z,87.75
2022-09-10T07:21:42.082Z,88.30
2022-09-10T07:24:10.691Z,87.48
2022-09-10T07:26:37.751Z,88.89
2022-09-10T07:29:04.898Z,88.53
2022-09-10T07:31:38.225Z,87.42
2022-09-10T07:34:05.400Z,87.09
2022-09-10T07:36:32.058Z,86.51
2022-09-10T07:39:01.717Z,85.55
2022-09-10T07:41:34.272Z,85.53
2022-09-10T07:44:04.103Z,85.06
2022-09-10T07:46:30.788Z,85.35
2022-09-10T07:48:59.833Z,85.22
2022-09-10T07:51:29.130Z,85.58
2022-09-10T07:53:58.021Z,84.38
2022-09-10T07:56:25.168Z,82.97
2022-09-10T07:58:53.823Z,81.16
2022-09-10T08:01:21.436Z,81.10
2022-09-10T08:03:48.543Z,80.41
2022-09-10T08:06:16.242Z,79.85
2022-09-10T08:08:43.257Z,79.62
2022-09-10T08:11:12.939Z,79.40
2022-09-10T08:13:50.632Z,79.33
2022-09-10T08:16:20.406Z,76.77
2022-09-10T08:18:48.706Z,77.36
2022-09-10T08:21:17.927Z,77.37
2022-09-10T08:23:51.785Z,78.16
2022-09-10T08:26:18.935Z,79.82
2022-09-10T08:28:46.545Z,78.01
2022-09-10T08:31:13.872Z,76.95
2022-09-10T08:33:40.546Z,77.21
2022-09-10T08:36:10.432Z,75.29
2022-09-10T08:38:39.956Z,75.17
2022-09-10T08:41:23.288Z,75.91
2022-09-10T08:43:58.559Z,74.28
2022-09-10T08:46:29.405Z,74.32
2022-09-10T08:49:14.342Z,73.13
2022-09-10T08:51:44.181Z,70.39
2022-09-10T08:54:16.206Z,67.84
2022-09-10T08:56:43.783Z,67.19
2022-09-10T08:59:33.631Z,65.37
2022-09-10T09:02:26.253Z,62.32
2022-09-10T09:05:18.941Z,61.94
2022-09-10T09:07:48.494Z,62.26
2022-09-10T09:10:24.635Z,59.57
2022-09-10T09:13:36.965Z,58.17
2022-09-10T09:16:03.834Z,58.70
2022-09-10T09:18:45.259Z,57.96
2022-09-10T09:21:17.080Z,54.91
2022-09-10T09:24:13.707Z,55.67
2022-09-10T09:26:44.970Z,55.55
2022-09-10T09:29:19.014Z,54.38
2022-09-10T09:31:53.965Z,54.81
2022-09-10T09:34:44.240Z,51.02
2022-09-10T09:37:18.290Z,51.82
2022-09-10T09:40:07.180Z,50.76
2022-09-10T09:42:45.909Z,49.17
2022-09-10T09:45:37.465Z,48.21
2022-09-10T09:48:06.862Z,48.53
2022-09-10T09:50:37.204Z,49.39
2022-09-10T09:53:03.944Z,46.44
2022-09-10T09:55:41.622Z,47.26
2022-09-10T09:58:21.071Z,47.21
2022-09-10T10:01:05.152Z,45.29
2022-09-10T10:03:42.574Z,45.23
2022-09-10T10:06:11.662Z,45.39
2022-09-10T10:08:41.484Z,45.96
2022-09-10T10:11:09.247Z,45.17
2022-09-10T10:13:38.489Z,46.83
2022-09-10T10:16:21.145Z,45.74
2022-09-10T10:18:48.758Z,46.66
2022-09-10T10:21:22.241Z,50.08
2022-09-10T10:23:49.674Z,49.79
2022-09-10T10:26:33.808Z,51.14
2022-09-10T10:29:20.579Z,53.68
2022-09-10T10:31:49.536Z,52.04
2022-09-10T10:34:25.276Z,54.67
2022-09-10T10:37:14.266Z,51.88
2022-09-10T10:40:05.459Z,52.69
2022-09-10T10:42:38.688Z,54.57
2022-09-10T10:45:18.383Z,56.04
2022-09-10T10:47:51.217Z,52.87
2022-09-10T10:50:39.928Z,51.98
2022-09-10T10:53:43.888Z,49.19
2022-09-10T10:56:32.422Z,51.05
2022-09-10T10:59:07.106Z,49.21
2022-09-10T11:01:42.236Z,46.66
2022-09-10T11:04:34.580Z,46.31
2022-09-10T11:07:12.759Z,49.22
2022-09-10T11:09:58.964Z,46.89
2022-09-10T11:12:36.002Z,45.42
2022-09-10T11:15:02.624Z,47.35
2022-09-10T11:17:42.439Z,44.67
2022-09-10T11:20:29.479Z,46.35
2022-09-10T11:23:14.815Z,43.21
2022-09-10T11:25:55.037Z,43.13
2022-09-10T11:28:26.522Z,43.40
2022-09-10T11:31:05.076Z,42.60
2022-09-10T11:33:46.125Z,44.76
2022-09-10T11:36:23.365Z,44.64
2022-09-10T11:39:14.281Z,44.22
2022-09-10T11:41:43.854Z,42.99
2022-09-10T11:44:47.133Z,42.79
2022-09-10T11:47:29.415Z,42.65
2022-09-10T11:50:34.532Z,42.97
2022-09-10T11:53:03.903Z,43.08
2022-09-10T11:55:47.475Z,43.11
2022-09-10T11:58:38.851Z,45.93
2022-09-10T12:01:11.871Z,43.68
2022-09-10T12:03:44.772Z,42.90
2022-09-10T12:06:31.365Z,42.32
2022-09-10T12:09:09.299Z,44.13
2022-09-10T12:11:47.489Z,44.08
2022-09-10T12:14:17.097Z,42.96
2022-09-10T12:16:54.965Z,45.77
2022-09-10T12:19:31.281Z,46.23
2022-09-10T12:22:05.436Z,46.47
2022-09-10T12:24:35.074Z,47.06
2022-09-10T12:27:05.098Z,47.62
2022-09-10T12:29:40.275Z,47.33
2022-09-10T12:32:28.528Z,48.08
2022-09-10T12:35:35.692Z,48.04
2022-09-10T12:38:57.039Z,48.53
2022-09-10T12:41:23.866Z,48.99
2022-09-10T12:44:00.168Z,51.47
2022-09-10T12:46:28.260Z,51.53
2022-09-10T12:48:58.270Z,51.02
2022-09-10T12:51:28.199Z,50.29
2022-09-10T12:54:03.939Z,51.69
2022-09-10T12:57:09.570Z,51.17
2022-09-10T13:00:11.337Z,51.47
2022-09-10T13:02:49.442Z,52.13
2022-09-10T13:05:40.036Z,52.94
2022-09-10T13:08:26.282Z,52.12
2022-09-10T13:10:59.628Z,51.52
2022-09-10T13:13:44.412Z,52.47
2022-09-10T13:16:18.445Z,52.11
2022-09-10T13:18:46.646Z,52.75
2022-09-10T13:21:25.698Z,52.24
2022-09-10T13:23:54.765Z,52.98
2022-09-10T13:26:38.338Z,54.62
2022-09-10T13:29:11.320Z,53.96
2022-09-10T13:31:45.024Z,55.39
2022-09-10T13:34:27.310Z,57.02
2022-09-10T13:37:03.980Z,56.20
2022-09-10T13:40:01.214Z,55.81
2022-09-10T13:43:05.430Z,54.90
2022-09-10T13:45:50.673Z,53.84
2022-09-10T13:48:46.880Z,54.54
2022-09-10T13:51:36.212Z,54.91
2022-09-10T13:54:36.148Z,55.06
2022-09-10T13:57:38.413Z,57.13
2022-09-10T14:00:07.010Z,57.80
2022-09-10T14:02:45.940Z,62.50
2022-09-10T14:05:48.649Z,60.09
2022-09-10T14:08:26.531Z,61.80
2022-09-10T14:10:53.263Z,61.37
2022-09-10T14:13:28.259Z,61.76
2022-09-10T14:15:58.549Z,61.27
2022-09-10T14:18:31.855Z,61.40
2022-09-10T14:21:00.085Z,61.84
2022-09-10T14:23:29.511Z,60.85
2022-09-10T14:26:14.450Z,60.23
2022-09-10T14:28:52.087Z,60.41
2022-09-10T14:31:37.496Z,60.33
2022-09-10T14:34:24.659Z,60.54
2022-09-10T14:36:51.418Z,61.44
2022-09-10T14:39:20.343Z,61.60
2022-09-10T14:41:48.506Z,62.68
2022-09-10T14:44:22.182Z,64.94
2022-09-10T14:46:57.547Z,64.88
2022-09-10T14:49:30.717Z,66.00
2022-09-10T14:51:59.853Z,66.81
2022-09-10T14:54:26.928Z,67.98
2022-09-10T14:56:56.310Z,68.46
2022-09-10T14:59:25.979Z,68.47
2022-09-10T15:01:53.066Z,70.89
2022-09-10T15:04:26.269Z,70.71
2022-09-10T15:06:54.423Z,70.81
2022-09-10T15:09:21.828Z,70.31
2022-09-10T15:11:56.386Z,71.32
2022-09-10T15:14:24.859Z,72.51
2022-09-10T15:16:54.957Z,72.30
2022-09-10T15:19:22.924Z,72.80
2022-09-10T15:21:50.467Z,73.18
2022-09-10T15:24:22.593Z,73.28
2022-09-10T15:26:49.819Z,73.73
2022-09-10T15:29:17.743Z,74.56
2022-09-10T15:31:44.644Z,76.04
2022-09-10T15:34:12.227Z,75.83
2022-09-10T15:36:40.616Z,76.34
2022-09-10T15:39:11.173Z,76.24
2022-09-10T15:41:42.770Z,76.28
2022-09-10T15:44:10.156Z,76.53
2022-09-10T15:46:40.702Z,77.39
2022-09-10T15:49:07.962Z,77.39
2022-09-10T15:51:34.626Z,77.85
2022-09-10T15:54:04.999Z,77.92
2022-09-10T15:56:32.563Z,77.96
2022-09-10T15:58:59.554Z,78.11
2022-09-10T16:01:28.793Z,78.29
2022-09-10T16:03:57.904Z,79.28
2022-09-10T16:06:31.477Z,78.95
2022-09-10T16:09:01.894Z,78.58
2022-09-10T16:11:33.343Z,78.54
2022-09-10T16:14:04.712Z,78.30
2022-09-10T16:16:33.295Z,78.04
2022-09-10T16:19:00.714Z,76.89
2022-09-10T16:21:32.790Z,76.05
2022-09-10T16:24:00.939Z,75.60
2022-09-10T16:26:34.493Z,74.36
2022-09-10T16:29:05.822Z,73.39
2022-09-10T16:31:35.096Z,72.95
2022-09-10T16:34:04.737Z,73.00
2022-09-10T16:36:33.724Z,73.37
2022-09-10T16:39:05.073Z,73.97
2022-09-10T16:41:33.021Z,73.27
2022-09-10T16:44:00.696Z,75.86
2022-09-10T16:46:28.100Z,75.15
2022-09-10T16:48:55.762Z,74.95
2022-09-10T16:51:24.434Z,75.15
2022-09-10T16:54:05.913Z,75.95
2022-09-10T16:56:39.442Z,77.27
2022-09-10T16:59:09.851Z,77.22
2022-09-10T17:01:37.419Z,78.26
2022-09-10T17:04:04.879Z,77.85
2022-09-10T17:06:31.995Z,78.37
2022-09-10T17:09:00.622Z,78.67
2022-09-10T17:11:31.371Z,79.64
2022-09-10T17:14:01.291Z,79.72
2022-09-10T17:16:32.591Z,79.75
2022-09-10T17:18:59.256Z,79.89
2022-09-10T17:21:27.478Z,80.40
2022-09-10T17:23:55.689Z,80.79
2022-09-10T17:26:24.190Z,81.17
2022-09-10T17:28:55.574Z,81.68
2022-09-10T17:31:23.054Z,82.42
2022-09-10T17:33:51.501Z,83.00
2022-09-10T17:36:18.714Z,82.42
2022-09-10T17:38:46.167Z,82.64
2022-09-10T17:41:14.566Z,82.75
2022-09-10T17:43:43.022Z,82.93
2022-09-10T17:46:12.545Z,85.02
2022-09-10T17:48:39.478Z,85.57
2022-09-10T17:51:07.195Z,85.84
2022-09-10T17:53:34.848Z,84.94
2022-09-10T17:56:07.191Z,85.56
2022-09-10T17:58:34.146Z,85.80
2022-09-10T18:01:02.546Z,86.42
2022-09-10T18:03:29.374Z,86.75
2022-09-10T18:05:56.991Z,86.28
2022-09-10T18:08:23.796Z,85.91
2022-09-10T18:10:50.842Z,85.83
2022-09-10T18:13:19.461Z,85.76
2022-09-10T18:15:46.415Z,86.40
2022-09-10T18:18:14.062Z,86.13
2022-09-10T18:20:40.936Z,86.36
2022-09-10T18:23:07.612Z,86.31
2022-09-10T18:25:34.305Z,86.44
2022-09-10T18:28:03.755Z,86.69
2022-09-10T18:30:30.757Z,86.55
2022-09-10T18:32:57.670Z,86.25
2022-09-10T18:35:24.364Z,86.64
2022-09-10T18:37:51.992Z,86.83
2022-09-10T18:40:19.613Z,87.19
2022-09-10T18:42:49.251Z,87.13
2022-09-10T18:45:18.997Z,87.45
2022-09-10T18:47:47.762Z,87.44
2022-09-10T18:50:17.460Z,87.54
2022-09-10T18:52:47.261Z,88.02
2022-09-10T18:55:17.003Z,87.72
2022-09-10T18:57:47.123Z,87.12
2022-09-10T19:00:16.327Z,87.65
2022-09-10T19:02:43.586Z,87.96
2022-09-10T19:05:14.191Z,87.89
2022-09-10T19:07:43.923Z,88.12
2022-09-10T19:10:13.631Z,88.01
2022-09-10T19:12:43.791Z,88.15
2022-09-10T19:15:13.551Z,87.88
2022-09-10T19:17:40.345Z,87.95
2022-09-10T19:20:10.259Z,87.80
2022-09-10T19:22:40.916Z,88.08
2022-09-10T19:25:10.774Z,88.04
2022-09-10T19:27:41.010Z,88.19
2022-09-10T19:30:11.395Z,88.21
2022-09-10T19:32:40.567Z,88.31
2022-09-10T19:35:11.297Z,88.25
2022-09-10T19:37:41.186Z,88.28
2022-09-10T19:40:11.908Z,88.58
2022-09-10T19:42:41.617Z,88.77
2022-09-10T19:45:12.234Z,88.89
2022-09-10T19:47:40.279Z,88.64
2022-09-10T19:50:08.689Z,88.86
2022-09-10T19:52:38.969Z,89.02
2022-09-10T19:55:09.242Z,88.64
2022-09-10T19:57:39.080Z,88.18
2022-09-10T20:00:17.197Z,88.60
2022-09-10T20:03:01.408Z,88.47
2022-09-10T20:05:34.086Z,89.07
2022-09-10T20:08:04.690Z,89.16
2022-09-10T20:10:34.335Z,89.12
2022-09-10T20:13:04.849Z,89.29
2022-09-10T20:15:42.299Z,89.38
2022-09-10T20:18:14.784Z,89.47
2022-09-10T20:20:46.218Z,89.60
2022-09-10T20:23:16.094Z,89.79
2022-09-10T20:25:45.995Z,89.70
2022-09-10T20:28:16.570Z,89.67
2022-09-10T20:30:46.318Z,89.70
2022-09-10T20:33:16.750Z,89.71
2022-09-10T20:35:46.417Z,89.62
2022-09-10T20:38:16.388Z,89.64
2022-09-10T20:40:46.240Z,89.63
2022-09-10T20:43:16.132Z,89.31
2022-09-10T20:45:46.692Z,89.44
2022-09-10T20:48:16.392Z,89.41
2022-09-10T20:50:54.963Z,89.46
2022-09-10T20:53:23.430Z,89.57
2022-09-10T20:56:03.064Z,89.94
2022-09-10T20:58:37.044Z,90.33
2022-09-10T21:01:13.766Z,90.03
2022-09-10T21:03:41.273Z,90.25
2022-09-10T21:06:12.643Z,90.05
2022-09-10T21:08:42.557Z,89.72
2022-09-10T21:11:16.895Z,89.89
2022-09-10T21:13:46.213Z,89.83
2022-09-10T21:16:28.199Z,89.92
2022-09-10T21:19:04.225Z,90.54
2022-09-10T21:21:35.602Z,90.33
2022-09-10T21:24:09.915Z,90.57
2022-09-10T21:26:43.087Z,90.73
2022-09-10T21:29:18.073Z,91.34
2022-09-10T21:31:50.599Z,91.22
2022-09-10T21:34:20.609Z,90.90
2022-09-10T21:36:51.005Z,90.49
2022-09-10T21:39:20.347Z,91.06
2022-09-10T21:41:50.738Z,90.59
2022-09-10T21:44:22.075Z,90.75
2022-09-10T21:46:50.125Z,91.11
2022-09-10T21:49:20.426Z,91.67
2022-09-10T21:51:49.460Z,91.50
2022-09-10T21:54:21.279Z,91.11
2022-09-10T21:56:51.064Z,91.04
2022-09-10T21:59:21.351Z,90.90
2022-09-10T22:01:50.430Z,90.70
2022-09-10T22:04:22.837Z,90.64
2022-09-10T22:06:50.908Z,90.73
2022-09-10T22:09:20.716Z,90.90
2022-09-10T22:11:51.835Z,90.74
2022-09-10T22:14:21.801Z,90.81
2022-09-10T22:16:52.228Z,91.09
2022-09-10T22:19:23.674Z,91.15
2022-09-10T22:21:57.366Z,90.98
2022-09-10T22:24:26.295Z,91.16
2022-09-10T22:26:55.542Z,91.06
2022-09-10T22:29:25.222Z,90.86
2022-09-10T22:31:54.651Z,90.84
2022-09-10T22:34:24.527Z,90.72
2022-09-10T22:36:53.905Z,90.82
2022-09-10T22:39:23.269Z,90.62
2022-09-10T22:41:52.774Z,90.86
2022-09-10T22:44:23.077Z,90.96
2022-09-10T22:46:52.025Z,91.32
2022-09-10T22:49:21.873Z,91.37
2022-09-10T22:51:51.272Z,91.36
2022-09-10T22:54:20.372Z,91.64
2022-09-10T22:56:49.395Z,91.46
2022-09-10T22:59:18.963Z,91.28
2022-09-10T23:01:48.478Z,91.48
2022-09-10T23:04:17.632Z,91.36
2022-09-10T23:06:47.011Z,91.03
2022-09-10T23:09:18.248Z,91.23
2022-09-10T23:11:47.246Z,91.26
2022-09-10T23:14:19.350Z,91.34
2022-09-10T23:16:49.987Z,91.73
2022-09-10T23:19:24.201Z,91.65
2022-09-10T23:21:55.299Z,91.52
2022-09-10T23:24:24.904Z,91.64
2022-09-10T23:26:54.628Z,91.54
2022-09-10T23:29:24.113Z,91.66
2022-09-10T23:31:54.439Z,91.86
2022-09-10T23:34:23.134Z,91.72
2022-09-10T23:36:52.930Z,91.64
2022-09-10T23:39:23.886Z,91.57
2022-09-10T23:41:56.714Z,91.47
2022-09-10T23:44:25.942Z,91.60
2022-09-10T23:46:58.103Z,91.63
2022-09-10T23:49:27.587Z,91.75
2022-09-10T23:51:57.222Z,91.49
2022-09-10T23:54:29.095Z,91.66
2022-09-10T23:56:57.113Z,91.89
2022-09-10T23:59:25.789Z,91.61
